sensor_id;sensor_type;location;lat;lon;timestamp;P1;durP1;ratioP1;P2;durP2;ratioP2
61709;SDS011;73500;51.494;5.386;2023-12-14T00:01:12;5.03;;;3.05;;
61709;SDS011;73500;51.494;5.386;2023-12-14T00:03:38;4.93;;;2.90;;
61709;SDS011;73500;51.494;5.386;2023-12-14T00:06:07;4.28;;;2.60;;
61709;SDS011;73500;51.494;5.386;2023-12-14T00:08:33;5.07;;;2.58;;
61709;SDS011;73500;51.494;5.386;2023-12-14T00:11:02;5.60;;;2.50;;
61709;SDS011;73500;51.494;5.386;2023-12-14T00:13:29;3.97;;;2.30;;
61709;SDS011;73500;51.494;5.386;2023-12-14T00:15:54;4.07;;;2.30;;
61709;SDS011;73500;51.494;5.386;2023-12-14T00:18:19;4.30;;;2.30;;
61709;SDS011;73500;51.494;5.386;2023-12-14T00:20:44;5.27;;;2.67;;
61709;SDS011;73500;51.494;5.386;2023-12-14T00:23:10;4.80;;;2.50;;
61709;SDS011;73500;51.494;5.386;2023-12-14T00:25:35;4.75;;;2.50;;
61709;SDS011;73500;51.494;5.386;2023-12-14T00:28:00;3.97;;;2.10;;
61709;SDS011;73500;51.494;5.386;2023-12-14T00:30:25;4.97;;;1.95;;
61709;SDS011;73500;51.494;5.386;2023-12-14T00:32:51;4.03;;;2.40;;
61709;SDS011;73500;51.494;5.386;2023-12-14T00:35:16;4.20;;;2.55;;
61709;SDS011;73500;51.494;5.386;2023-12-14T00:37:41;4.88;;;2.53;;
61709;SDS011;73500;51.494;5.386;2023-12-14T00:40:07;4.43;;;2.30;;
61709;SDS011;73500;51.494;5.386;2023-12-14T00:42:32;4.30;;;2.20;;
61709;SDS011;73500;51.494;5.386;2023-12-14T00:44:58;3.80;;;2.15;;
61709;SDS011;73500;51.494;5.386;2023-12-14T00:47:23;4.03;;;2.30;;
61709;SDS011;73500;51.494;5.386;2023-12-14T00:49:48;4.55;;;2.10;;
61709;SDS011;73500;51.494;5.386;2023-12-14T00:52:13;4.50;;;2.33;;
61709;SDS011;73500;51.494;5.386;2023-12-14T00:54:39;4.60;;;2.30;;
61709;SDS011;73500;51.494;5.386;2023-12-14T00:57:04;4.03;;;2.30;;
61709;SDS011;73500;51.494;5.386;2023-12-14T00:59:29;4.88;;;2.78;;
61709;SDS011;73500;51.494;5.386;2023-12-14T01:01:54;4.28;;;2.20;;
61709;SDS011;73500;51.494;5.386;2023-12-14T01:04:20;4.35;;;2.33;;
61709;SDS011;73500;51.494;5.386;2023-12-14T01:06:45;3.90;;;2.38;;
61709;SDS011;73500;51.494;5.386;2023-12-14T01:09:10;3.95;;;2.33;;
61709;SDS011;73500;51.494;5.386;2023-12-14T01:11:36;3.35;;;2.08;;
61709;SDS011;73500;51.494;5.386;2023-12-14T01:14:01;4.00;;;2.30;;
61709;SDS011;73500;51.494;5.386;2023-12-14T01:16:26;4.60;;;2.33;;
61709;SDS011;73500;51.494;5.386;2023-12-14T01:18:52;5.82;;;2.78;;
61709;SDS011;73500;51.494;5.386;2023-12-14T01:21:17;4.05;;;2.42;;
61709;SDS011;73500;51.494;5.386;2023-12-14T01:23:42;4.27;;;2.33;;
61709;SDS011;73500;51.494;5.386;2023-12-14T01:26:08;4.45;;;2.42;;
61709;SDS011;73500;51.494;5.386;2023-12-14T01:28:34;4.18;;;2.33;;
61709;SDS011;73500;51.494;5.386;2023-12-14T01:30:59;4.00;;;2.20;;
61709;SDS011;73500;51.494;5.386;2023-12-14T01:33:24;3.70;;;2.10;;
61709;SDS011;73500;51.494;5.386;2023-12-14T01:35:50;4.28;;;2.13;;
61709;SDS011;73500;51.494;5.386;2023-12-14T01:38:15;4.27;;;2.10;;
61709;SDS011;73500;51.494;5.386;2023-12-14T01:40:40;4.30;;;2.47;;
61709;SDS011;73500;51.494;5.386;2023-12-14T01:43:06;3.83;;;2.15;;
61709;SDS011;73500;51.494;5.386;2023-12-14T01:45:33;3.85;;;2.03;;
61709;SDS011;73500;51.494;5.386;2023-12-14T01:47:58;5.05;;;2.20;;
61709;SDS011;73500;51.494;5.386;2023-12-14T01:50:23;4.17;;;2.10;;
61709;SDS011;73500;51.494;5.386;2023-12-14T01:52:49;3.73;;;2.13;;
61709;SDS011;73500;51.494;5.386;2023-12-14T01:55:14;3.60;;;2.20;;
61709;SDS011;73500;51.494;5.386;2023-12-14T01:57:39;4.05;;;2.40;;
61709;SDS011;73500;51.494;5.386;2023-12-14T02:00:05;4.13;;;2.10;;
61709;SDS011;73500;51.494;5.386;2023-12-14T02:02:30;3.80;;;2.10;;
61709;SDS011;73500;51.494;5.386;2023-12-14T02:04:56;3.87;;;2.27;;
61709;SDS011;73500;51.494;5.386;2023-12-14T02:07:21;4.40;;;2.13;;
61709;SDS011;73500;51.494;5.386;2023-12-14T02:09:46;4.05;;;2.28;;
61709;SDS011;73500;51.494;5.386;2023-12-14T02:12:12;3.75;;;2.22;;
61709;SDS011;73500;51.494;5.386;2023-12-14T02:14:37;3.75;;;2.05;;
61709;SDS011;73500;51.494;5.386;2023-12-14T02:17:02;4.07;;;2.17;;
61709;SDS011;73500;51.494;5.386;2023-12-14T02:19:27;3.30;;;1.83;;
61709;SDS011;73500;51.494;5.386;2023-12-14T02:21:53;3.87;;;2.00;;
61709;SDS011;73500;51.494;5.386;2023-12-14T02:24:18;2.88;;;1.73;;
61709;SDS011;73500;51.494;5.386;2023-12-14T02:26:43;4.07;;;1.88;;
61709;SDS011;73500;51.494;5.386;2023-12-14T02:29:08;3.60;;;1.90;;
61709;SDS011;73500;51.494;5.386;2023-12-14T02:31:34;3.58;;;1.75;;
61709;SDS011;73500;51.494;5.386;2023-12-14T02:33:59;3.35;;;1.80;;
61709;SDS011;73500;51.494;5.386;2023-12-14T02:36:24;3.30;;;1.90;;
61709;SDS011;73500;51.494;5.386;2023-12-14T02:38:50;3.60;;;1.90;;
61709;SDS011;73500;51.494;5.386;2023-12-14T02:41:15;3.78;;;2.10;;
61709;SDS011;73500;51.494;5.386;2023-12-14T02:43:40;3.38;;;1.80;;
61709;SDS011;73500;51.494;5.386;2023-12-14T02:46:06;3.60;;;1.90;;
61709;SDS011;73500;51.494;5.386;2023-12-14T02:48:31;3.67;;;2.08;;
61709;SDS011;73500;51.494;5.386;2023-12-14T02:50:56;3.53;;;1.80;;
61709;SDS011;73500;51.494;5.386;2023-12-14T02:53:22;3.90;;;2.28;;
61709;SDS011;73500;51.494;5.386;2023-12-14T02:55:47;3.83;;;2.22;;
61709;SDS011;73500;51.494;5.386;2023-12-14T02:58:12;3.92;;;2.00;;
61709;SDS011;73500;51.494;5.386;2023-12-14T03:00:38;3.78;;;2.20;;
61709;SDS011;73500;51.494;5.386;2023-12-14T03:03:03;3.80;;;2.10;;
61709;SDS011;73500;51.494;5.386;2023-12-14T03:05:28;4.03;;;2.17;;
61709;SDS011;73500;51.494;5.386;2023-12-14T03:07:53;3.70;;;2.10;;
61709;SDS011;73500;51.494;5.386;2023-12-14T03:10:19;3.53;;;1.90;;
61709;SDS011;73500;51.494;5.386;2023-12-14T03:12:44;3.50;;;1.98;;
61709;SDS011;73500;51.494;5.386;2023-12-14T03:15:09;3.88;;;2.15;;
61709;SDS011;73500;51.494;5.386;2023-12-14T03:17:35;4.60;;;2.20;;
61709;SDS011;73500;51.494;5.386;2023-12-14T03:20:00;4.10;;;2.00;;
61709;SDS011;73500;51.494;5.386;2023-12-14T03:22:25;3.17;;;1.75;;
61709;SDS011;73500;51.494;5.386;2023-12-14T03:24:51;3.47;;;1.80;;
61709;SDS011;73500;51.494;5.386;2023-12-14T03:27:16;3.22;;;1.75;;
61709;SDS011;73500;51.494;5.386;2023-12-14T03:29:41;3.77;;;2.17;;
61709;SDS011;73500;51.494;5.386;2023-12-14T03:32:06;3.30;;;1.60;;
61709;SDS011;73500;51.494;5.386;2023-12-14T03:34:32;3.22;;;1.90;;
61709;SDS011;73500;51.494;5.386;2023-12-14T03:36:57;3.90;;;2.03;;
61709;SDS011;73500;51.494;5.386;2023-12-14T03:39:22;4.07;;;2.00;;
61709;SDS011;73500;51.494;5.386;2023-12-14T03:41:48;4.70;;;1.90;;
61709;SDS011;73500;51.494;5.386;2023-12-14T03:44:13;3.03;;;1.70;;
61709;SDS011;73500;51.494;5.386;2023-12-14T03:46:38;4.10;;;2.13;;
61709;SDS011;73500;51.494;5.386;2023-12-14T03:49:03;3.90;;;2.25;;
61709;SDS011;73500;51.494;5.386;2023-12-14T03:51:29;3.42;;;1.83;;
61709;SDS011;73500;51.494;5.386;2023-12-14T03:53:55;3.47;;;1.95;;
61709;SDS011;73500;51.494;5.386;2023-12-14T03:56:20;3.85;;;2.10;;
61709;SDS011;73500;51.494;5.386;2023-12-14T03:58:45;3.63;;;2.00;;
61709;SDS011;73500;51.494;5.386;2023-12-14T04:01:20;3.38;;;1.88;;
61709;SDS011;73500;51.494;5.386;2023-12-14T04:03:48;3.38;;;1.80;;
61709;SDS011;73500;51.494;5.386;2023-12-14T04:06:15;3.60;;;1.92;;
61709;SDS011;73500;51.494;5.386;2023-12-14T04:08:40;3.75;;;1.88;;
61709;SDS011;73500;51.494;5.386;2023-12-14T04:11:06;3.78;;;1.95;;
61709;SDS011;73500;51.494;5.386;2023-12-14T04:13:32;3.70;;;1.90;;
61709;SDS011;73500;51.494;5.386;2023-12-14T04:15:58;3.88;;;1.98;;
61709;SDS011;73500;51.494;5.386;2023-12-14T04:18:23;3.80;;;1.85;;
61709;SDS011;73500;51.494;5.386;2023-12-14T04:20:49;4.10;;;2.00;;
61709;SDS011;73500;51.494;5.386;2023-12-14T04:23:14;3.90;;;1.90;;
61709;SDS011;73500;51.494;5.386;2023-12-14T04:25:40;3.08;;;1.90;;
61709;SDS011;73500;51.494;5.386;2023-12-14T04:28:05;3.80;;;2.00;;
61709;SDS011;73500;51.494;5.386;2023-12-14T04:30:30;3.80;;;1.88;;
61709;SDS011;73500;51.494;5.386;2023-12-14T04:32:55;3.50;;;2.00;;
61709;SDS011;73500;51.494;5.386;2023-12-14T04:35:21;3.13;;;1.83;;
61709;SDS011;73500;51.494;5.386;2023-12-14T04:37:48;3.97;;;2.22;;
61709;SDS011;73500;51.494;5.386;2023-12-14T04:40:13;3.63;;;2.00;;
61709;SDS011;73500;51.494;5.386;2023-12-14T04:42:38;3.45;;;1.92;;
61709;SDS011;73500;51.494;5.386;2023-12-14T04:45:04;3.55;;;1.90;;
61709;SDS011;73500;51.494;5.386;2023-12-14T04:47:29;3.70;;;2.00;;
61709;SDS011;73500;51.494;5.386;2023-12-14T04:49:55;3.35;;;2.00;;
61709;SDS011;73500;51.494;5.386;2023-12-14T04:52:20;3.92;;;1.98;;
61709;SDS011;73500;51.494;5.386;2023-12-14T04:54:45;3.77;;;2.10;;
61709;SDS011;73500;51.494;5.386;2023-12-14T04:57:11;3.60;;;2.03;;
61709;SDS011;73500;51.494;5.386;2023-12-14T04:59:36;3.27;;;1.73;;
61709;SDS011;73500;51.494;5.386;2023-12-14T05:02:01;3.67;;;1.93;;
61709;SDS011;73500;51.494;5.386;2023-12-14T05:04:27;3.47;;;1.90;;
61709;SDS011;73500;51.494;5.386;2023-12-14T05:06:52;3.38;;;1.88;;
61709;SDS011;73500;51.494;5.386;2023-12-14T05:09:17;3.17;;;1.75;;
61709;SDS011;73500;51.494;5.386;2023-12-14T05:11:43;5.65;;;2.28;;
61709;SDS011;73500;51.494;5.386;2023-12-14T05:14:08;3.67;;;1.80;;
61709;SDS011;73500;51.494;5.386;2023-12-14T05:16:33;4.03;;;1.92;;
61709;SDS011;73500;51.494;5.386;2023-12-14T05:18:59;3.70;;;2.13;;
61709;SDS011;73500;51.494;5.386;2023-12-14T05:21:24;3.20;;;1.90;;
61709;SDS011;73500;51.494;5.386;2023-12-14T05:23:49;3.97;;;2.15;;
61709;SDS011;73500;51.494;5.386;2023-12-14T05:26:15;4.05;;;2.17;;
61709;SDS011;73500;51.494;5.386;2023-12-14T05:28:40;3.65;;;2.10;;
61709;SDS011;73500;51.494;5.386;2023-12-14T05:31:06;3.10;;;1.90;;
61709;SDS011;73500;51.494;5.386;2023-12-14T05:33:31;3.60;;;2.00;;
61709;SDS011;73500;51.494;5.386;2023-12-14T05:35:58;3.60;;;2.08;;
61709;SDS011;73500;51.494;5.386;2023-12-14T05:38:24;3.90;;;2.30;;
61709;SDS011;73500;51.494;5.386;2023-12-14T05:40:49;3.30;;;1.83;;
61709;SDS011;73500;51.494;5.386;2023-12-14T05:43:15;3.58;;;1.95;;
61709;SDS011;73500;51.494;5.386;2023-12-14T05:45:43;4.07;;;2.08;;
61709;SDS011;73500;51.494;5.386;2023-12-14T05:48:08;3.38;;;1.95;;
61709;SDS011;73500;51.494;5.386;2023-12-14T05:50:33;3.75;;;2.10;;
61709;SDS011;73500;51.494;5.386;2023-12-14T05:52:58;3.28;;;1.80;;
61709;SDS011;73500;51.494;5.386;2023-12-14T05:55:24;3.83;;;1.98;;
61709;SDS011;73500;51.494;5.386;2023-12-14T05:57:49;3.58;;;2.22;;
61709;SDS011;73500;51.494;5.386;2023-12-14T06:00:15;3.60;;;2.13;;
61709;SDS011;73500;51.494;5.386;2023-12-14T06:02:41;4.07;;;2.40;;
61709;SDS011;73500;51.494;5.386;2023-12-14T06:05:06;3.70;;;1.85;;
61709;SDS011;73500;51.494;5.386;2023-12-14T06:07:32;3.20;;;1.70;;
61709;SDS011;73500;51.494;5.386;2023-12-14T06:09:58;3.30;;;1.58;;
61709;SDS011;73500;51.494;5.386;2023-12-14T06:12:23;2.67;;;1.30;;
61709;SDS011;73500;51.494;5.386;2023-12-14T06:14:48;2.83;;;1.60;;
61709;SDS011;73500;51.494;5.386;2023-12-14T06:17:15;3.03;;;1.48;;
61709;SDS011;73500;51.494;5.386;2023-12-14T06:19:40;2.75;;;1.35;;
61709;SDS011;73500;51.494;5.386;2023-12-14T06:22:06;3.00;;;1.50;;
61709;SDS011;73500;51.494;5.386;2023-12-14T06:24:31;2.83;;;1.45;;
61709;SDS011;73500;51.494;5.386;2023-12-14T06:26:56;2.50;;;1.20;;
61709;SDS011;73500;51.494;5.386;2023-12-14T06:29:21;2.20;;;1.10;;
61709;SDS011;73500;51.494;5.386;2023-12-14T06:31:47;2.20;;;1.23;;
61709;SDS011;73500;51.494;5.386;2023-12-14T06:34:12;2.00;;;1.08;;
61709;SDS011;73500;51.494;5.386;2023-12-14T06:36:41;1.88;;;1.00;;
61709;SDS011;73500;51.494;5.386;2023-12-14T06:39:07;2.28;;;1.05;;
61709;SDS011;73500;51.494;5.386;2023-12-14T06:41:33;2.53;;;1.13;;
61709;SDS011;73500;51.494;5.386;2023-12-14T06:43:58;1.67;;;0.90;;
61709;SDS011;73500;51.494;5.386;2023-12-14T06:46:23;2.28;;;1.05;;
61709;SDS011;73500;51.494;5.386;2023-12-14T06:48:48;1.73;;;1.00;;
61709;SDS011;73500;51.494;5.386;2023-12-14T06:51:14;2.28;;;1.00;;
61709;SDS011;73500;51.494;5.386;2023-12-14T06:53:40;2.65;;;1.25;;
61709;SDS011;73500;51.494;5.386;2023-12-14T06:56:07;1.50;;;0.85;;
61709;SDS011;73500;51.494;5.386;2023-12-14T06:58:42;2.33;;;1.13;;
61709;SDS011;73500;51.494;5.386;2023-12-14T07:01:12;2.47;;;1.35;;
61709;SDS011;73500;51.494;5.386;2023-12-14T07:03:40;3.08;;;1.30;;
61709;SDS011;73500;51.494;5.386;2023-12-14T07:06:07;2.92;;;1.40;;
61709;SDS011;73500;51.494;5.386;2023-12-14T07:08:32;3.30;;;1.40;;
61709;SDS011;73500;51.494;5.386;2023-12-14T07:10:57;3.23;;;1.50;;
61709;SDS011;73500;51.494;5.386;2023-12-14T07:13:23;3.92;;;1.70;;
61709;SDS011;73500;51.494;5.386;2023-12-14T07:15:48;3.08;;;1.60;;
61709;SDS011;73500;51.494;5.386;2023-12-14T07:18:13;3.70;;;1.60;;
61709;SDS011;73500;51.494;5.386;2023-12-14T07:20:39;3.97;;;1.55;;
61709;SDS011;73500;51.494;5.386;2023-12-14T07:23:04;3.35;;;1.60;;
61709;SDS011;73500;51.494;5.386;2023-12-14T07:25:30;3.40;;;1.55;;
61709;SDS011;73500;51.494;5.386;2023-12-14T07:27:55;3.45;;;1.70;;
61709;SDS011;73500;51.494;5.386;2023-12-14T07:30:20;3.33;;;1.40;;
61709;SDS011;73500;51.494;5.386;2023-12-14T07:32:45;3.17;;;1.60;;
61709;SDS011;73500;51.494;5.386;2023-12-14T07:35:11;4.07;;;1.50;;
61709;SDS011;73500;51.494;5.386;2023-12-14T07:37:36;3.92;;;1.70;;
61709;SDS011;73500;51.494;5.386;2023-12-14T07:40:01;3.40;;;1.58;;
61709;SDS011;73500;51.494;5.386;2023-12-14T07:42:28;4.38;;;1.88;;
61709;SDS011;73500;51.494;5.386;2023-12-14T07:44:53;3.42;;;1.63;;
61709;SDS011;73500;51.494;5.386;2023-12-14T07:47:19;3.03;;;1.50;;
61709;SDS011;73500;51.494;5.386;2023-12-14T07:49:44;3.30;;;1.50;;
61709;SDS011;73500;51.494;5.386;2023-12-14T07:52:10;3.83;;;1.60;;
61709;SDS011;73500;51.494;5.386;2023-12-14T07:54:36;4.35;;;2.00;;
61709;SDS011;73500;51.494;5.386;2023-12-14T07:57:01;3.72;;;1.63;;
61709;SDS011;73500;51.494;5.386;2023-12-14T07:59:27;4.00;;;1.75;;
61709;SDS011;73500;51.494;5.386;2023-12-14T08:01:54;4.35;;;1.80;;
61709;SDS011;73500;51.494;5.386;2023-12-14T08:04:20;4.23;;;1.57;;
61709;SDS011;73500;51.494;5.386;2023-12-14T08:06:45;4.18;;;2.10;;
61709;SDS011;73500;51.494;5.386;2023-12-14T08:09:10;5.03;;;1.83;;
61709;SDS011;73500;51.494;5.386;2023-12-14T08:11:35;4.03;;;1.70;;
61709;SDS011;73500;51.494;5.386;2023-12-14T08:14:01;6.18;;;2.13;;
61709;SDS011;73500;51.494;5.386;2023-12-14T08:16:27;3.42;;;1.60;;
61709;SDS011;73500;51.494;5.386;2023-12-14T08:18:53;4.25;;;1.75;;
61709;SDS011;73500;51.494;5.386;2023-12-14T08:21:18;4.15;;;1.63;;
61709;SDS011;73500;51.494;5.386;2023-12-14T08:23:43;8.27;;;2.25;;
61709;SDS011;73500;51.494;5.386;2023-12-14T08:26:09;4.45;;;1.90;;
61709;SDS011;73500;51.494;5.386;2023-12-14T08:28:36;4.68;;;2.17;;
61709;SDS011;73500;51.494;5.386;2023-12-14T08:31:02;6.28;;;2.45;;
61709;SDS011;73500;51.494;5.386;2023-12-14T08:33:28;4.93;;;1.90;;
61709;SDS011;73500;51.494;5.386;2023-12-14T08:35:54;5.00;;;2.00;;
61709;SDS011;73500;51.494;5.386;2023-12-14T08:38:19;5.38;;;2.60;;
61709;SDS011;73500;51.494;5.386;2023-12-14T08:40:45;4.57;;;1.77;;
61709;SDS011;73500;51.494;5.386;2023-12-14T08:43:10;6.43;;;2.47;;
61709;SDS011;73500;51.494;5.386;2023-12-14T08:45:35;5.82;;;2.38;;
61709;SDS011;73500;51.494;5.386;2023-12-14T08:48:01;6.88;;;2.22;;
61709;SDS011;73500;51.494;5.386;2023-12-14T08:50:26;6.03;;;2.00;;
61709;SDS011;73500;51.494;5.386;2023-12-14T08:52:51;5.47;;;2.10;;
61709;SDS011;73500;51.494;5.386;2023-12-14T08:55:17;5.68;;;2.10;;
61709;SDS011;73500;51.494;5.386;2023-12-14T08:57:43;4.55;;;1.95;;
61709;SDS011;73500;51.494;5.386;2023-12-14T09:00:08;5.50;;;2.17;;
61709;SDS011;73500;51.494;5.386;2023-12-14T09:02:35;4.57;;;2.05;;
61709;SDS011;73500;51.494;5.386;2023-12-14T09:05:00;4.82;;;1.85;;
61709;SDS011;73500;51.494;5.386;2023-12-14T09:07:25;6.03;;;2.08;;
61709;SDS011;73500;51.494;5.386;2023-12-14T09:09:51;4.95;;;2.20;;
61709;SDS011;73500;51.494;5.386;2023-12-14T09:12:16;5.70;;;2.05;;
61709;SDS011;73500;51.494;5.386;2023-12-14T09:14:41;5.57;;;1.75;;
61709;SDS011;73500;51.494;5.386;2023-12-14T09:17:06;4.22;;;1.70;;
61709;SDS011;73500;51.494;5.386;2023-12-14T09:19:32;4.70;;;1.88;;
61709;SDS011;73500;51.494;5.386;2023-12-14T09:21:58;5.20;;;2.00;;
61709;SDS011;73500;51.494;5.386;2023-12-14T09:24:23;4.13;;;1.85;;
61709;SDS011;73500;51.494;5.386;2023-12-14T09:26:49;4.65;;;1.95;;
61709;SDS011;73500;51.494;5.386;2023-12-14T09:29:14;3.95;;;1.63;;
61709;SDS011;73500;51.494;5.386;2023-12-14T09:31:41;3.40;;;1.50;;
61709;SDS011;73500;51.494;5.386;2023-12-14T09:34:07;3.90;;;1.67;;
61709;SDS011;73500;51.494;5.386;2023-12-14T09:36:35;3.20;;;1.35;;
61709;SDS011;73500;51.494;5.386;2023-12-14T09:39:00;3.70;;;1.33;;
61709;SDS011;73500;51.494;5.386;2023-12-14T09:41:26;4.28;;;1.40;;
61709;SDS011;73500;51.494;5.386;2023-12-14T09:43:51;3.80;;;1.70;;
61709;SDS011;73500;51.494;5.386;2023-12-14T09:46:17;3.55;;;1.30;;
61709;SDS011;73500;51.494;5.386;2023-12-14T09:48:43;4.75;;;1.60;;
61709;SDS011;73500;51.494;5.386;2023-12-14T09:51:10;2.85;;;1.30;;
61709;SDS011;73500;51.494;5.386;2023-12-14T09:53:36;4.63;;;1.50;;
61709;SDS011;73500;51.494;5.386;2023-12-14T09:56:02;3.90;;;1.80;;
61709;SDS011;73500;51.494;5.386;2023-12-14T09:58:27;4.55;;;1.50;;
61709;SDS011;73500;51.494;5.386;2023-12-14T10:00:57;3.58;;;1.50;;
61709;SDS011;73500;51.494;5.386;2023-12-14T10:03:25;4.50;;;1.55;;
61709;SDS011;73500;51.494;5.386;2023-12-14T10:06:02;3.33;;;1.40;;
61709;SDS011;73500;51.494;5.386;2023-12-14T10:08:27;4.47;;;1.60;;
61709;SDS011;73500;51.494;5.386;2023-12-14T10:10:53;2.97;;;1.42;;
61709;SDS011;73500;51.494;5.386;2023-12-14T10:13:21;4.78;;;1.42;;
61709;SDS011;73500;51.494;5.386;2023-12-14T10:16:00;4.53;;;1.90;;
61709;SDS011;73500;51.494;5.386;2023-12-14T10:18:25;3.40;;;1.42;;
61709;SDS011;73500;51.494;5.386;2023-12-14T10:20:51;3.05;;;1.40;;
61709;SDS011;73500;51.494;5.386;2023-12-14T10:23:17;3.85;;;1.38;;
61709;SDS011;73500;51.494;5.386;2023-12-14T10:25:43;4.40;;;1.60;;
61709;SDS011;73500;51.494;5.386;2023-12-14T10:28:09;3.05;;;1.38;;
61709;SDS011;73500;51.494;5.386;2023-12-14T10:30:37;4.30;;;1.27;;
61709;SDS011;73500;51.494;5.386;2023-12-14T10:33:02;3.30;;;1.23;;
61709;SDS011;73500;51.494;5.386;2023-12-14T10:35:28;3.30;;;1.27;;
61709;SDS011;73500;51.494;5.386;2023-12-14T10:37:53;3.90;;;1.30;;
61709;SDS011;73500;51.494;5.386;2023-12-14T10:40:20;3.47;;;1.38;;
61709;SDS011;73500;51.494;5.386;2023-12-14T10:42:48;4.65;;;1.70;;
61709;SDS011;73500;51.494;5.386;2023-12-14T10:45:15;2.83;;;1.30;;
61709;SDS011;73500;51.494;5.386;2023-12-14T10:47:44;3.25;;;1.33;;
61709;SDS011;73500;51.494;5.386;2023-12-14T10:50:11;3.03;;;1.10;;
61709;SDS011;73500;51.494;5.386;2023-12-14T10:52:37;5.53;;;1.40;;
61709;SDS011;73500;51.494;5.386;2023-12-14T10:55:04;4.30;;;1.45;;
61709;SDS011;73500;51.494;5.386;2023-12-14T10:57:33;3.63;;;1.40;;
61709;SDS011;73500;51.494;5.386;2023-12-14T10:59:59;2.88;;;1.20;;
61709;SDS011;73500;51.494;5.386;2023-12-14T11:02:26;3.38;;;1.00;;
61709;SDS011;73500;51.494;5.386;2023-12-14T11:04:54;4.20;;;1.42;;
61709;SDS011;73500;51.494;5.386;2023-12-14T11:10:08;4.03;;;1.50;;
61709;SDS011;73500;51.494;5.386;2023-12-14T11:12:35;4.28;;;1.30;;
61709;SDS011;73500;51.494;5.386;2023-12-14T11:15:02;3.35;;;1.20;;
61709;SDS011;73500;51.494;5.386;2023-12-14T11:17:29;2.55;;;1.15;;
61709;SDS011;73500;51.494;5.386;2023-12-14T11:19:55;3.45;;;1.20;;
61709;SDS011;73500;51.494;5.386;2023-12-14T11:22:24;2.95;;;1.27;;
61709;SDS011;73500;51.494;5.386;2023-12-14T11:24:52;2.67;;;1.20;;
61709;SDS011;73500;51.494;5.386;2023-12-14T11:27:20;3.38;;;1.48;;
61709;SDS011;73500;51.494;5.386;2023-12-14T11:29:53;3.55;;;1.50;;
61709;SDS011;73500;51.494;5.386;2023-12-14T11:32:19;2.58;;;1.20;;
61709;SDS011;73500;51.494;5.386;2023-12-14T11:35:02;2.42;;;1.23;;
61709;SDS011;73500;51.494;5.386;2023-12-14T11:37:27;3.13;;;1.38;;
61709;SDS011;73500;51.494;5.386;2023-12-14T11:39:53;2.45;;;1.05;;
61709;SDS011;73500;51.494;5.386;2023-12-14T11:42:19;3.33;;;1.27;;
61709;SDS011;73500;51.494;5.386;2023-12-14T11:44:45;2.90;;;1.20;;
61709;SDS011;73500;51.494;5.386;2023-12-14T11:47:10;3.67;;;1.50;;
61709;SDS011;73500;51.494;5.386;2023-12-14T11:49:35;4.47;;;1.38;;
61709;SDS011;73500;51.494;5.386;2023-12-14T11:52:02;2.80;;;1.30;;
61709;SDS011;73500;51.494;5.386;2023-12-14T11:54:29;3.70;;;1.30;;
61709;SDS011;73500;51.494;5.386;2023-12-14T11:56:54;4.07;;;1.30;;
61709;SDS011;73500;51.494;5.386;2023-12-14T11:59:20;3.63;;;1.35;;
61709;SDS011;73500;51.494;5.386;2023-12-14T12:01:58;4.18;;;1.30;;
61709;SDS011;73500;51.494;5.386;2023-12-14T12:04:25;4.15;;;1.40;;
61709;SDS011;73500;51.494;5.386;2023-12-14T12:06:58;2.90;;;1.15;;
61709;SDS011;73500;51.494;5.386;2023-12-14T12:09:32;2.50;;;1.20;;
61709;SDS011;73500;51.494;5.386;2023-12-14T12:11:59;3.42;;;1.38;;
61709;SDS011;73500;51.494;5.386;2023-12-14T12:14:24;2.80;;;1.08;;
61709;SDS011;73500;51.494;5.386;2023-12-14T12:16:49;3.50;;;1.20;;
61709;SDS011;73500;51.494;5.386;2023-12-14T12:19:16;6.72;;;1.92;;
61709;SDS011;73500;51.494;5.386;2023-12-14T12:21:41;3.92;;;1.60;;
61709;SDS011;73500;51.494;5.386;2023-12-14T12:24:07;3.20;;;1.20;;
61709;SDS011;73500;51.494;5.386;2023-12-14T12:26:32;3.08;;;1.20;;
61709;SDS011;73500;51.494;5.386;2023-12-14T12:28:57;3.05;;;1.20;;
61709;SDS011;73500;51.494;5.386;2023-12-14T12:31:23;2.50;;;1.17;;
61709;SDS011;73500;51.494;5.386;2023-12-14T12:33:48;3.35;;;1.10;;
61709;SDS011;73500;51.494;5.386;2023-12-14T12:36:13;2.42;;;1.10;;
61709;SDS011;73500;51.494;5.386;2023-12-14T12:38:38;3.25;;;1.10;;
61709;SDS011;73500;51.494;5.386;2023-12-14T12:41:05;3.17;;;1.10;;
61709;SDS011;73500;51.494;5.386;2023-12-14T12:43:30;3.50;;;1.10;;
61709;SDS011;73500;51.494;5.386;2023-12-14T12:45:55;4.53;;;1.23;;
61709;SDS011;73500;51.494;5.386;2023-12-14T12:48:23;2.20;;;1.05;;
61709;SDS011;73500;51.494;5.386;2023-12-14T12:50:48;1.90;;;0.93;;
61709;SDS011;73500;51.494;5.386;2023-12-14T12:53:13;2.58;;;1.10;;
61709;SDS011;73500;51.494;5.386;2023-12-14T12:55:38;3.70;;;1.20;;
61709;SDS011;73500;51.494;5.386;2023-12-14T12:58:04;2.70;;;1.20;;
61709;SDS011;73500;51.494;5.386;2023-12-14T13:00:31;4.70;;;1.23;;
61709;SDS011;73500;51.494;5.386;2023-12-14T13:03:00;3.28;;;1.20;;
61709;SDS011;73500;51.494;5.386;2023-12-14T13:05:27;2.58;;;1.20;;
61709;SDS011;73500;51.494;5.386;2023-12-14T13:07:52;2.65;;;0.93;;
61709;SDS011;73500;51.494;5.386;2023-12-14T13:10:19;2.30;;;1.25;;
61709;SDS011;73500;51.494;5.386;2023-12-14T13:12:47;2.88;;;1.30;;
61709;SDS011;73500;51.494;5.386;2023-12-14T13:15:13;2.83;;;1.20;;
61709;SDS011;73500;51.494;5.386;2023-12-14T13:17:38;1.75;;;1.00;;
61709;SDS011;73500;51.494;5.386;2023-12-14T13:20:03;1.92;;;1.05;;
61709;SDS011;73500;51.494;5.386;2023-12-14T13:22:31;3.08;;;1.00;;
61709;SDS011;73500;51.494;5.386;2023-12-14T13:24:57;2.53;;;1.00;;
61709;SDS011;73500;51.494;5.386;2023-12-14T13:27:22;4.15;;;1.25;;
61709;SDS011;73500;51.494;5.386;2023-12-14T13:29:49;3.20;;;1.17;;
61709;SDS011;73500;51.494;5.386;2023-12-14T13:32:14;3.08;;;1.27;;
61709;SDS011;73500;51.494;5.386;2023-12-14T13:34:39;2.33;;;1.10;;
61709;SDS011;73500;51.494;5.386;2023-12-14T13:37:05;3.88;;;1.30;;
61709;SDS011;73500;51.494;5.386;2023-12-14T13:39:31;2.83;;;1.10;;
61709;SDS011;73500;51.494;5.386;2023-12-14T13:41:58;2.60;;;1.20;;
61709;SDS011;73500;51.494;5.386;2023-12-14T13:44:24;4.53;;;1.10;;
61709;SDS011;73500;51.494;5.386;2023-12-14T13:46:49;2.67;;;1.20;;
61709;SDS011;73500;51.494;5.386;2023-12-14T13:49:14;2.58;;;1.10;;
61709;SDS011;73500;51.494;5.386;2023-12-14T13:51:40;3.38;;;1.30;;
61709;SDS011;73500;51.494;5.386;2023-12-14T13:54:05;2.45;;;1.00;;
61709;SDS011;73500;51.494;5.386;2023-12-14T13:56:31;1.48;;;0.82;;
61709;SDS011;73500;51.494;5.386;2023-12-14T13:58:57;4.47;;;1.30;;
61709;SDS011;73500;51.494;5.386;2023-12-14T14:01:22;3.20;;;1.40;;
61709;SDS011;73500;51.494;5.386;2023-12-14T14:03:47;2.60;;;1.25;;
61709;SDS011;73500;51.494;5.386;2023-12-14T14:06:13;3.45;;;1.15;;
61709;SDS011;73500;51.494;5.386;2023-12-14T14:08:38;2.80;;;1.00;;
61709;SDS011;73500;51.494;5.386;2023-12-14T14:11:04;2.85;;;1.10;;
61709;SDS011;73500;51.494;5.386;2023-12-14T14:13:29;1.83;;;0.90;;
61709;SDS011;73500;51.494;5.386;2023-12-14T14:15:55;2.33;;;1.20;;
61709;SDS011;73500;51.494;5.386;2023-12-14T14:18:21;3.17;;;1.20;;
61709;SDS011;73500;51.494;5.386;2023-12-14T14:20:46;2.75;;;1.13;;
61709;SDS011;73500;51.494;5.386;2023-12-14T14:23:11;2.58;;;1.20;;
61709;SDS011;73500;51.494;5.386;2023-12-14T14:25:37;2.97;;;1.40;;
61709;SDS011;73500;51.494;5.386;2023-12-14T14:28:03;4.30;;;1.20;;
61709;SDS011;73500;51.494;5.386;2023-12-14T14:30:28;2.80;;;1.10;;
61709;SDS011;73500;51.494;5.386;2023-12-14T14:32:54;3.50;;;1.15;;
61709;SDS011;73500;51.494;5.386;2023-12-14T14:35:19;2.88;;;1.20;;
61709;SDS011;73500;51.494;5.386;2023-12-14T14:37:45;3.80;;;1.40;;
61709;SDS011;73500;51.494;5.386;2023-12-14T14:40:11;2.75;;;1.23;;
61709;SDS011;73500;51.494;5.386;2023-12-14T14:42:38;2.88;;;1.27;;